Time;durP1;ratioP1;P1;durP2;ratioP2;P2;SDS_P1;SDS_P2;PMS_P1;PMS_P2;Temp;Humidity;BMP_temperature;BMP_pressure;BME280_temperature;BME280_humidity;BME280_pressure;Samples;Min_cycle;Max_cycle;Signal;HPM_P1;HPM_P2
2022/01/12 00:00:28;;;;;;;19.40;16.23;;;;;;;-1.63;77.45;93242.34;5013023;28;20195;-84
2022/01/12 00:02:54;;;;;;;17.27;14.73;;;;;;;-2.15;75.97;93195.00;5013077;28;20172;-79
2022/01/12 00:05:21;;;;;;;21.53;15.33;;;;;;;-1.91;76.37;93248.28;5011391;28;20206;-86
2022/01/12 00:07:49;;;;;;;17.30;15.77;;;;;;;-1.99;76.28;93245.88;5009720;28;20192;-86
2022/01/12 00:10:17;;;;;;;17.80;16.13;;;;;;;-2.30;79.24;93224.22;5012054;28;20168;-83
2022/01/12 00:12:42;;;;;;;18.17;16.37;;;;;;;-2.03;80.20;93249.00;5011273;28;20196;-87
2022/01/12 00:15:08;;;;;;;17.37;15.77;;;;;;;-2.29;79.48;93210.47;5012790;28;20214;-86
2022/01/12 00:17:33;;;;;;;15.27;13.77;;;;;;;-2.08;79.89;93249.56;5010231;28;20215;-87
2022/01/12 00:19:59;;;;;;;16.20;14.63;;;;;;;-1.87;76.83;93253.84;5010581;28;20226;-87
2022/01/12 00:22:26;;;;;;;15.87;14.27;;;;;;;-2.27;77.07;93219.53;5011592;28;20243;-87
2022/01/12 00:33:11;;;;;;;15.20;13.97;;;;;;;-2.23;78.30;93259.09;5011377;28;20226;-88
2022/01/12 00:35:58;;;;;;;15.43;13.90;;;;;;;-2.11;77.73;93265.28;5011266;28;20230;-87
2022/01/12 00:38:29;;;;;;;14.50;13.10;;;;;;;-2.45;79.22;93256.75;5011094;28;20239;-86
2022/01/12 00:40:55;;;;;;;14.20;12.97;;;;;;;-2.31;79.91;93278.91;5010977;28;20227;-86
2022/01/12 00:43:22;;;;;;;15.10;13.80;;;;;;;-2.49;79.65;93235.88;5011348;28;20226;-86
2022/01/12 00:45:48;;;;;;;15.23;13.90;;;;;;;-2.07;78.02;93266.47;5011127;28;20223;-86
2022/01/12 00:48:15;;;;;;;16.67;14.97;;;;;;;-2.05;77.25;93261.19;5011994;28;20210;-86
2022/01/12 00:50:41;;;;;;;14.33;13.03;;;;;;;-2.14;78.84;93263.09;5011262;28;20215;-85
2022/01/12 00:53:08;;;;;;;14.43;13.23;;;;;;;-2.11;78.18;93264.47;5011961;28;20274;-86
2022/01/12 00:55:35;;;;;;;17.43;15.70;;;;;;;-2.53;80.18;93236.44;5009761;28;20227;-86
2022/01/12 00:58:01;;;;;;;19.03;16.97;;;;;;;-2.52;80.54;93238.03;5009299;28;20191;-86
2022/01/12 01:00:28;;;;;;;17.43;15.73;;;;;;;-2.28;79.85;93261.44;5009723;28;20214;-86
2022/01/12 01:02:54;;;;;;;18.07;16.13;;;;;;;-2.30;79.63;93265.94;5010806;28;20251;-87
2022/01/12 01:05:22;;;;;;;19.70;15.77;;;;;;;-2.21;79.52;93261.47;5010912;28;20658;-86
2022/01/12 01:07:48;;;;;;;16.30;14.77;;;;;;;-2.32;79.69;93265.31;5011289;28;20184;-85
2022/01/12 01:10:22;;;;;;;17.97;16.17;;;;;;;-2.25;78.42;93253.38;5010099;28;20211;-87
2022/01/12 01:12:48;;;;;;;20.50;16.27;;;;;;;-2.08;78.42;93262.34;5011721;28;20195;-87
2022/01/12 01:15:17;;;;;;;23.57;18.07;;;;;;;-2.11;79.55;93264.47;5010473;28;20188;-83
2022/01/12 01:25:45;;;;;;;19.97;17.27;;;;;;;-2.33;81.00;93268.06;5010646;28;20799;-84
2022/01/12 01:28:12;;;;;;;20.10;16.13;;;;;;;-2.10;79.65;93264.31;5010657;28;20187;-86
2022/01/12 01:30:40;;;;;;;22.17;17.10;;;;;;;-2.14;78.77;93258.00;5006560;28;20262;-87
2022/01/12 01:33:09;;;;;;;17.23;15.43;;;;;;;-2.19;79.73;93249.28;5011256;28;20224;-87
2022/01/12 01:35:41;;;;;;;21.23;15.77;;;;;;;-2.06;79.31;93262.16;5010109;28;20254;-86
2022/01/12 01:38:07;;;;;;;17.17;15.47;;;;;;;-2.01;77.71;93262.41;5009635;28;20214;-86
2022/01/12 01:40:36;;;;;;;17.33;15.27;;;;;;;-2.32;78.04;93239.75;5008358;28;20258;-87
2022/01/12 01:53:49;;;;;;;15.27;13.67;;;;;;;-2.05;76.87;93256.06;5009211;28;20206;-85
2022/01/12 01:56:15;;;;;;;16.03;14.53;;;;;;;-1.99;76.67;93265.53;5009861;28;20211;-86
2022/01/12 01:58:40;;;;;;;15.13;13.63;;;;;;;-2.05;78.35;93258.63;5006171;28;20279;-86
2022/01/12 02:01:07;;;;;;;15.63;14.03;;;;;;;-1.90;78.00;93283.13;5010104;28;20231;-83
2022/01/12 02:03:32;;;;;;;16.20;14.23;;;;;;;-1.94;76.85;93269.13;5011177;28;20198;-87
2022/01/12 02:05:59;;;;;;;16.03;14.33;;;;;;;-2.01;77.26;93283.63;5008546;28;20239;-86
2022/01/12 02:08:25;;;;;;;16.37;14.73;;;;;;;-2.10;78.08;93269.41;5009628;28;20207;-77
2022/01/12 02:10:58;;;;;;;16.87;14.90;;;;;;;-2.07;77.83;93281.06;5009686;28;20223;-78
2022/01/12 02:13:24;;;;;;;14.47;13.03;;;;;;;-2.34;77.12;93290.28;5008994;28;20198;-78
2022/01/12 02:15:51;;;;;;;16.17;14.80;;;;;;;-2.17;76.60;93285.69;5009759;28;20231;-77
2022/01/12 02:40:46;;;;;;;14.10;13.00;;;;;;;-2.52;77.40;93291.72;5008776;28;20231;-78
2022/01/12 02:43:16;;;;;;;13.80;12.73;;;;;;;-2.46;77.35;93296.84;5024357;28;20191;-78
2022/01/12 02:51:15;;;;;;;14.80;13.40;;;;;;;-2.25;77.35;93327.53;5015684;28;20253;-77
2022/01/12 02:53:42;;;;;;;14.77;13.33;;;;;;;-2.49;77.92;93327.88;5013742;28;20222;-78
2022/01/12 02:56:19;;;;;;;13.77;12.77;;;;;;;-2.38;76.60;93331.75;5013549;28;20257;-78
2022/01/12 02:58:46;;;;;;;15.07;13.67;;;;;;;-2.60;77.00;93299.50;5016174;28;20186;-78
2022/01/12 03:03:42;;;;;;;14.53;13.27;;;;;;;-2.36;76.06;93287.13;5015259;28;20195;-78
2022/01/12 03:06:08;;;;;;;13.17;12.20;;;;;;;-2.62;75.37;93325.22;5015652;28;20286;-77
2022/01/12 03:08:37;;;;;;;13.40;12.33;;;;;;;-2.48;74.87;93347.38;5014709;28;20245;-77
2022/01/12 03:11:05;;;;;;;13.83;12.73;;;;;;;-2.33;76.81;93340.44;5014642;28;20248;-77
2022/01/12 03:13:32;;;;;;;13.63;12.40;;;;;;;-2.52;75.80;93294.25;5014208;28;20242;-77
2022/01/12 03:15:58;;;;;;;14.37;13.07;;;;;;;-2.17;75.59;93345.31;5014841;28;20226;-78
2022/01/12 03:18:23;;;;;;;13.37;12.20;;;;;;;-2.51;76.46;93341.84;5015635;28;20327;-78
2022/01/12 03:20:49;;;;;;;14.80;13.47;;;;;;;-2.57;76.00;93307.59;5016061;28;20234;-78
2022/01/12 03:23:15;;;;;;;14.27;13.07;;;;;;;-2.47;75.86;93333.63;5014954;28;20198;-78
2022/01/12 03:25:41;;;;;;;14.30;13.10;;;;;;;-2.50;76.23;93362.09;5015062;28;20235;-77
2022/01/12 03:28:07;;;;;;;14.00;12.73;;;;;;;-2.46;75.38;93355.63;5015290;28;20308;-77
2022/01/12 03:30:41;;;;;;;14.20;12.90;;;;;;;-2.62;76.53;93366.13;5014437;28;20243;-78
2022/01/12 03:33:19;;;;;;;14.20;13.00;;;;;;;-2.47;77.30;93369.41;5015571;28;20213;-78
2022/01/12 03:36:12;;;;;;;14.30;12.90;;;;;;;-2.16;75.05;93372.44;5014671;28;20249;-77
2022/01/12 03:38:36;;;;;;;13.67;12.67;;;;;;;-2.31;75.57;93355.59;5015139;28;20257;-77
2022/01/12 03:41:02;;;;;;;13.33;12.33;;;;;;;-2.67;75.37;93370.97;5015075;28;20246;-78
2022/01/12 03:43:27;;;;;;;13.57;12.20;;;;;;;-2.61;75.53;93362.56;5014997;28;20195;-78
2022/01/12 03:45:52;;;;;;;14.60;13.23;;;;;;;-2.34;74.08;93387.44;5015107;28;20235;-78
2022/01/12 03:48:18;;;;;;;14.27;12.97;;;;;;;-2.21;74.03;93379.88;5013754;28;20200;-77
2022/01/12 03:50:43;;;;;;;12.87;11.63;;;;;;;-2.48;76.16;93382.38;5013254;28;20237;-78
2022/01/12 03:53:09;;;;;;;14.07;12.97;;;;;;;-2.77;75.27;93332.13;5015512;28;20229;-78
2022/01/12 03:55:34;;;;;;;14.90;13.60;;;;;;;-2.65;74.95;93351.16;5015261;28;20249;-77
2022/01/12 03:58:00;;;;;;;14.67;13.33;;;;;;;-2.40;75.41;93390.72;5010419;28;20243;-78
2022/01/12 04:00:25;;;;;;;14.63;13.40;;;;;;;-2.61;75.81;93377.91;5011861;28;20194;-78
2022/01/12 04:02:51;;;;;;;15.57;14.07;;;;;;;-2.51;76.63;93409.09;5011834;28;20190;-78
2022/01/12 04:10:35;;;;;;;14.07;12.90;;;;;;;-2.49;75.19;93378.25;5010508;28;20283;-78
2022/01/12 04:13:01;;;;;;;14.30;13.10;;;;;;;-2.18;75.74;93417.88;5011344;28;20187;-78
2022/01/12 04:15:27;;;;;;;14.17;12.90;;;;;;;-2.84;75.73;93425.00;5012272;28;20215;-78
2022/01/12 04:17:52;;;;;;;14.33;13.13;;;;;;;-2.80;75.19;93387.94;5010326;28;20222;-77
2022/01/12 04:20:18;;;;;;;14.50;13.03;;;;;;;-2.35;74.41;93413.97;5011790;28;20241;-77
2022/01/12 04:25:28;;;;;;;15.33;14.00;;;;;;;-2.15;73.04;93429.50;5009275;28;20285;-78
2022/01/12 04:27:54;;;;;;;15.67;14.23;;;;;;;-2.30;76.44;93438.97;5009651;28;20218;-77
2022/01/12 04:30:20;;;;;;;14.00;12.63;;;;;;;-2.64;74.56;93446.47;5008278;28;20188;-77
2022/01/12 04:32:45;;;;;;;14.60;13.17;;;;;;;-2.51;74.99;93439.75;5009437;28;20211;-77
2022/01/12 04:35:13;;;;;;;13.70;12.40;;;;;;;-2.67;74.57;93434.03;5010909;28;20208;-77
2022/01/12 04:37:38;;;;;;;14.00;12.77;;;;;;;-2.66;74.80;93451.75;5010959;28;20205;-77
2022/01/12 04:40:05;;;;;;;13.50;12.30;;;;;;;-2.72;74.96;93444.81;5011675;28;20223;-77
2022/01/12 04:42:30;;;;;;;14.23;12.83;;;;;;;-2.71;75.29;93448.16;5010497;28;20699;-77
2022/01/12 04:45:03;;;;;;;14.00;12.70;;;;;;;-2.74;74.77;93448.53;5011589;28;20199;-77
2022/01/12 04:50:15;;;;;;;13.67;12.37;;;;;;;-2.83;75.59;93450.38;4991273;28;20215;-77
2022/01/12 04:52:41;;;;;;;13.83;12.60;;;;;;;-2.75;74.49;93450.28;5009475;28;20191;-79
2022/01/12 04:55:07;;;;;;;15.33;14.07;;;;;;;-2.90;75.67;93454.63;5008502;28;20191;-78
2022/01/12 04:57:33;;;;;;;15.20;13.53;;;;;;;-2.78;75.48;93437.84;5009467;28;20231;-78
2022/01/12 05:00:07;;;;;;;15.90;14.40;;;;;;;-2.82;74.79;93446.84;5008174;28;20223;-74
2022/01/12 05:13:33;;;;;;;14.13;13.00;;;;;;;-2.73;75.32;93475.63;5006543;28;20202;-76
2022/01/12 05:16:00;;;;;;;16.23;14.07;;;;;;;-3.20;76.14;93454.75;5008490;28;20226;-77
2022/01/12 05:18:29;;;;;;;14.53;13.27;;;;;;;-2.75;76.20;93477.56;5007169;28;20255;-78
2022/01/12 05:20:55;;;;;;;14.17;12.93;;;;;;;-2.81;75.76;93494.41;5006309;28;20236;-81
2022/01/12 05:23:21;;;;;;;14.67;13.27;;;;;;;-2.64;76.30;93474.56;5009757;28;20207;-84
2022/01/12 05:25:46;;;;;;;15.10;13.50;;;;;;;-2.58;74.36;93496.84;5007217;28;20231;-82
2022/01/12 05:28:13;;;;;;;17.23;15.40;;;;;;;-3.18;74.77;93471.50;5009584;28;20265;-84
2022/01/12 05:30:39;;;;;;;16.40;14.80;;;;;;;-2.94;74.76;93506.22;5009004;28;20231;-83
2022/01/12 05:33:05;;;;;;;14.13;12.73;;;;;;;-2.60;74.16;93507.25;5008615;28;20202;-76
2022/01/12 05:35:33;;;;;;;14.20;12.90;;;;;;;-2.65;75.70;93514.69;5009716;28;20704;-90
2022/01/12 05:38:03;;;;;;;13.83;12.50;;;;;;;-3.08;73.73;93505.22;5010387;28;20178;-88
2022/01/12 05:40:29;;;;;;;14.80;13.47;;;;;;;-3.23;75.45;93514.63;5021842;28;20199;-85
2022/01/12 05:42:56;;;;;;;13.80;12.60;;;;;;;-3.08;75.54;93523.09;5009767;28;20187;-85
2022/01/12 05:45:22;;;;;;;12.90;11.90;;;;;;;-3.07;74.68;93504.28;5006661;28;20202;-84
2022/01/12 05:50:17;;;;;;;15.17;13.73;;;;;;;-3.02;76.43;93501.19;5005970;28;20203;-87
2022/01/12 05:52:42;;;;;;;15.43;13.97;;;;;;;-3.04;76.28;93534.56;5005862;28;20271;-85
2022/01/12 05:55:10;;;;;;;14.70;13.30;;;;;;;-2.96;76.57;93519.16;5006850;28;20206;-87
2022/01/12 05:57:36;;;;;;;15.90;14.40;;;;;;;-2.93;74.93;93500.94;5022093;28;20250;-86
2022/01/12 06:00:06;;;;;;;14.63;13.37;;;;;;;-2.73;74.25;93527.53;5006184;28;20192;-87
2022/01/12 06:02:31;;;;;;;13.80;12.60;;;;;;;-2.98;73.11;93523.66;5006876;28;20231;-88
2022/01/12 06:04:57;;;;;;;14.27;13.20;;;;;;;-2.69;72.43;93549.19;5007800;28;20196;-89
2022/01/12 06:07:23;;;;;;;13.23;12.23;;;;;;;-2.75;74.01;93547.34;5007491;28;20223;-87
2022/01/12 06:09:48;;;;;;;14.83;13.60;;;;;;;-2.92;74.24;93540.81;5008904;28;20246;-89
2022/01/12 06:12:14;;;;;;;14.50;13.13;;;;;;;-2.83;73.85;93550.00;5008001;28;20294;-90
2022/01/12 06:14:41;;;;;;;13.87;12.77;;;;;;;-2.71;71.73;93543.50;5007181;28;20210;-91
2022/01/12 06:17:07;;;;;;;14.77;13.40;;;;;;;-2.69;72.44;93538.22;5008171;28;20230;-90
2022/01/12 06:19:33;;;;;;;13.20;12.20;;;;;;;-2.92;73.37;93571.47;5008757;28;20206;-90
2022/01/12 06:21:58;;;;;;;14.90;13.53;;;;;;;-2.94;74.10;93578.50;5008545;28;20231;-88
2022/01/12 06:24:24;;;;;;;13.87;12.77;;;;;;;-3.15;74.94;93570.72;5008425;28;20203;-86
2022/01/12 06:26:49;;;;;;;14.43;13.13;;;;;;;-2.91;75.24;93569.72;5007656;28;20231;-80
2022/01/12 06:31:57;;;;;;;15.37;13.97;;;;;;;-3.07;73.33;93542.56;5006343;28;20242;-80
2022/01/12 06:34:22;;;;;;;14.63;13.20;;;;;;;-2.98;71.95;93554.31;5006608;28;20210;-81
2022/01/12 06:36:48;;;;;;;13.90;12.77;;;;;;;-2.93;73.99;93576.75;5004702;28;20227;-80
2022/01/12 06:39:17;;;;;;;14.20;12.87;;;;;;;-2.67;72.74;93593.28;5007405;28;20219;-80
2022/01/12 06:41:43;;;;;;;15.80;14.40;;;;;;;-2.92;73.95;93575.78;5008481;28;20238;-80
2022/01/12 06:44:14;;;;;;;14.73;13.53;;;;;;;-2.83;74.45;93567.09;5008061;28;21109;-88
2022/01/12 06:46:39;;;;;;;15.10;13.70;;;;;;;-2.74;74.69;93578.81;5006522;28;20298;-83
2022/01/12 06:49:05;;;;;;;15.33;14.00;;;;;;;-2.51;73.18;93570.09;5022665;28;20195;-82
2022/01/12 06:51:31;;;;;;;13.70;12.60;;;;;;;-2.20;72.86;93580.94;5006760;28;20242;-87
2022/01/12 06:53:57;;;;;;;14.90;13.50;;;;;;;-2.13;69.89;93586.09;5007397;28;20823;-87
2022/01/12 06:56:22;;;;;;;14.50;13.43;;;;;;;-2.39;70.81;93588.34;5007554;28;20257;-89
2022/01/12 06:58:48;;;;;;;12.33;11.43;;;;;;;-3.13;71.17;93612.22;5008117;28;20215;-85
2022/01/12 07:01:14;;;;;;;12.80;11.70;;;;;;;-2.48;72.60;93613.22;5007107;28;20223;-84
2022/01/12 07:03:39;;;;;;;15.87;14.43;;;;;;;-2.88;73.53;93579.59;5004983;28;20210;-85
2022/01/12 07:06:05;;;;;;;13.77;12.77;;;;;;;-2.38;71.40;93620.63;5008436;28;20230;-86
2022/01/12 07:08:36;;;;;;;13.73;12.77;;;;;;;-2.76;72.19;93594.31;5008845;28;20246;-86
2022/01/12 07:11:02;;;;;;;15.03;13.87;;;;;;;-2.82;69.91;93577.16;5008641;28;20242;-87
2022/01/12 07:13:28;;;;;;;12.93;11.93;;;;;;;-2.46;69.39;93621.47;5008101;28;20211;-91
2022/01/12 07:15:53;;;;;;;14.77;13.37;;;;;;;-2.74;71.92;93612.03;5009202;28;20242;-90
2022/01/12 07:18:24;;;;;;;14.60;13.50;;;;;;;-2.69;70.63;93620.75;5009464;28;20195;-89
2022/01/12 07:20:49;;;;;;;14.13;12.93;;;;;;;-2.70;71.40;93629.41;5004090;28;20309;-92
2022/01/12 07:23:15;;;;;;;14.73;13.53;;;;;;;-2.73;71.33;93628.94;5009256;28;20180;-89
2022/01/12 07:25:40;;;;;;;14.47;13.27;;;;;;;-2.76;72.71;93637.75;5007629;28;20238;-89
2022/01/12 07:28:06;;;;;;;14.67;13.37;;;;;;;-2.74;72.59;93633.25;5009531;28;20215;-90
2022/01/12 07:30:32;;;;;;;14.10;12.67;;;;;;;-2.93;73.05;93602.31;5008808;28;20226;-89
2022/01/12 07:32:57;;;;;;;14.90;13.57;;;;;;;-2.55;72.00;93640.41;5011546;28;20199;-88
2022/01/12 07:35:23;;;;;;;14.93;13.47;;;;;;;-2.65;71.10;93606.69;5013498;28;20187;-90
2022/01/12 07:37:49;;;;;;;14.93;13.67;;;;;;;-2.70;72.15;93644.72;5011052;28;20260;-89
2022/01/12 07:40:35;;;;;;;14.87;13.53;;;;;;;-2.58;70.72;93658.66;5012469;28;20266;-89
2022/01/12 07:43:04;;;;;;;15.10;13.80;;;;;;;-2.67;71.99;93649.50;5012886;28;20200;-91
2022/01/12 07:45:30;;;;;;;15.30;13.70;;;;;;;-2.75;71.60;93624.00;5011980;28;20199;-87
2022/01/12 07:47:55;;;;;;;15.77;14.33;;;;;;;-2.53;71.50;93628.28;5027887;28;20218;-91
2022/01/12 07:50:21;;;;;;;15.63;13.30;;;;;;;-2.49;70.79;93633.84;5011019;28;20191;-90
2022/01/12 07:52:48;;;;;;;15.17;13.83;;;;;;;-2.30;69.23;93666.53;5012891;28;20200;-90
2022/01/12 07:55:14;;;;;;;14.47;13.17;;;;;;;-2.51;68.75;93630.66;5010289;28;20254;-87
2022/01/12 07:57:43;;;;;;;13.53;12.43;;;;;;;-2.12;68.71;93672.13;5012611;28;20202;-89
2022/01/12 08:00:11;;;;;;;15.40;14.20;;;;;;;-2.32;67.59;93607.13;5012272;28;20279;-91
2022/01/12 08:02:37;;;;;;;14.13;12.80;;;;;;;-2.12;68.45;93664.44;5010262;28;20227;-89
2022/01/12 08:05:06;;;;;;;15.10;13.80;;;;;;;-1.68;66.96;93672.84;5010738;28;20226;-90
2022/01/12 08:07:35;;;;;;;14.63;13.30;;;;;;;-1.58;67.00;93685.38;5009908;28;20258;-89
2022/01/12 08:10:01;;;;;;;15.43;14.20;;;;;;;-1.90;67.41;93689.91;5012097;28;20188;-86
2022/01/12 08:12:27;;;;;;;14.53;13.13;;;;;;;-1.75;67.60;93700.16;5011500;28;20714;-91
2022/01/12 08:14:52;;;;;;;14.33;13.10;;;;;;;-2.32;67.32;93691.50;5010458;28;20203;-88
2022/01/12 08:17:18;;;;;;;13.17;12.03;;;;;;;-2.32;68.14;93697.38;5011949;28;20243;-90
2022/01/12 08:19:43;;;;;;;13.83;12.63;;;;;;;-2.57;68.87;93644.94;5011886;28;20302;-86
2022/01/12 08:22:09;;;;;;;14.27;13.07;;;;;;;-2.05;67.35;93703.69;5011650;28;20219;-86
2022/01/12 08:24:34;;;;;;;14.60;13.47;;;;;;;-1.91;68.26;93701.13;5010713;28;20214;-87
2022/01/12 08:27:00;;;;;;;15.20;13.80;;;;;;;-2.19;67.80;93633.66;5012174;28;20307;-95
2022/01/12 08:29:28;;;;;;;18.80;17.00;;;;;;;-2.23;66.42;93665.69;5013236;28;20171;-94
2022/01/12 08:31:55;;;;;;;13.73;12.73;;;;;;;-2.41;66.70;93670.31;5010934;28;20277;-94
2022/01/12 08:34:20;;;;;;;13.27;12.27;;;;;;;-2.39;67.28;93663.28;5009835;28;20184;-94
2022/01/12 08:36:46;;;;;;;14.53;13.23;;;;;;;-2.62;67.24;93718.75;5013392;28;20214;-89
2022/01/12 08:39:11;;;;;;;14.10;13.00;;;;;;;-2.55;66.62;93672.88;5012266;28;20224;-88
2022/01/12 08:41:38;;;;;;;14.43;13.33;;;;;;;-2.06;65.75;93710.56;5012456;28;20231;-94
2022/01/12 08:44:08;;;;;;;12.77;11.87;;;;;;;-2.46;65.96;93625.81;5009572;28;20192;-94
2022/01/12 08:46:36;;;;;;;13.67;12.57;;;;;;;-1.80;66.59;93725.47;5011384;28;20233;-91
2022/01/12 08:49:02;;;;;;;12.83;11.93;;;;;;;-2.10;64.71;93649.72;5010339;28;20223;-90
2022/01/12 08:51:28;;;;;;;13.67;12.57;;;;;;;-1.60;66.27;93715.50;5009883;28;20227;-91
2022/01/12 08:53:53;;;;;;;15.53;14.43;;;;;;;-1.60;64.58;93716.28;5012102;28;20658;-90
2022/01/12 08:56:19;;;;;;;14.30;13.23;;;;;;;-1.71;65.98;93702.19;5013852;28;20227;-96
2022/01/12 08:58:46;;;;;;;14.23;13.13;;;;;;;-2.49;65.24;93646.63;5012113;28;20255;-93
2022/01/12 09:01:12;;;;;;;14.13;13.03;;;;;;;-1.87;64.94;93717.69;5011388;28;20315;-91
2022/01/12 09:03:39;;;;;;;14.53;13.43;;;;;;;-1.79;65.68;93720.19;5011895;28;20200;-92
2022/01/12 09:06:08;;;;;;;14.30;13.17;;;;;;;-1.55;65.36;93718.31;5025182;28;20238;-80
2022/01/12 09:08:34;;;;;;;13.10;12.10;;;;;;;-1.62;65.71;93718.25;5010518;28;20203;-78
2022/01/12 09:11:00;;;;;;;14.17;13.10;;;;;;;-1.84;65.07;93696.88;5009975;28;20219;-85
2022/01/12 09:13:26;;;;;;;12.43;11.53;;;;;;;-1.98;64.95;93707.91;5010331;28;20283;-86
2022/01/12 09:15:52;;;;;;;13.33;11.93;;;;;;;-1.62;64.56;93708.78;5009860;28;20288;-81
2022/01/12 09:18:18;;;;;;;13.50;12.60;;;;;;;-2.02;64.24;93688.78;5007158;28;20206;-81
2022/01/12 09:20:44;;;;;;;14.30;13.20;;;;;;;-1.94;66.20;93706.59;5010477;28;20219;-81
2022/01/12 09:23:10;;;;;;;13.57;12.57;;;;;;;-1.97;67.32;93693.34;5010654;28;20191;-81
2022/01/12 09:25:39;;;;;;;13.70;12.40;;;;;;;-2.11;67.25;93696.72;5009281;28;20330;-82
2022/01/12 09:28:05;;;;;;;13.60;12.33;;;;;;;-2.26;66.61;93689.03;5009570;28;20188;-82
2022/01/12 09:30:31;;;;;;;12.37;11.57;;;;;;;-2.49;67.23;93698.50;5009774;28;20203;-81
2022/01/12 09:32:58;;;;;;;13.13;12.10;;;;;;;-2.29;66.71;93678.38;5009734;28;20199;-82
2022/01/12 09:35:24;;;;;;;12.90;11.97;;;;;;;-2.18;67.77;93696.59;5009190;28;20194;-79
2022/01/12 09:37:49;;;;;;;12.40;11.60;;;;;;;-2.85;68.23;93656.69;5009547;28;20195;-87
2022/01/12 09:40:15;;;;;;;13.23;11.33;;;;;;;-2.54;68.47;93705.91;5009324;28;20227;-85
2022/01/12 09:42:46;;;;;;;11.77;10.97;;;;;;;-2.39;66.70;93688.03;5008814;28;20236;-89
2022/01/12 09:45:15;;;;;;;12.87;11.87;;;;;;;-2.48;67.93;93704.41;5009952;28;21114;-86
2022/01/12 09:47:42;;;;;;;12.50;11.77;;;;;;;-2.80;67.86;93679.94;5008770;28;20298;-86
2022/01/12 09:50:09;;;;;;;11.10;10.40;;;;;;;-2.28;67.55;93679.94;5010342;28;20287;-84
2022/01/12 09:52:34;;;;;;;12.97;12.13;;;;;;;-2.34;66.57;93701.91;5007109;28;20227;-86
2022/01/12 09:54:59;;;;;;;13.43;12.33;;;;;;;-1.94;66.69;93708.34;5024970;28;20250;-84
2022/01/12 09:57:25;;;;;;;12.73;11.83;;;;;;;-1.70;65.73;93701.19;5009407;28;20239;-85
2022/01/12 09:59:50;;;;;;;12.23;11.43;;;;;;;-2.43;65.96;93643.34;5008199;28;20195;-84
2022/01/12 10:02:18;;;;;;;13.60;12.50;;;;;;;-2.21;66.32;93701.31;5007996;28;20275;-86
2022/01/12 10:04:44;;;;;;;14.33;13.20;;;;;;;-2.57;67.25;93656.91;5009126;28;20203;-87
2022/01/12 10:07:11;;;;;;;12.63;11.77;;;;;;;-2.91;68.43;93669.34;5009785;28;20223;-89
2022/01/12 10:09:45;;;;;;;13.17;12.20;;;;;;;-2.72;68.19;93684.97;5010635;28;20322;-88
2022/01/12 10:12:12;;;;;;;14.57;13.37;;;;;;;-2.45;68.74;93711.75;5020143;28;20278;-87
2022/01/12 10:14:44;;;;;;;12.37;11.57;;;;;;;-2.15;67.87;93706.50;5008882;28;20205;-81
2022/01/12 10:17:11;;;;;;;12.73;11.93;;;;;;;-1.83;65.84;93713.03;5007881;28;20227;-81
2022/01/12 10:19:38;;;;;;;12.17;11.27;;;;;;;-2.19;65.27;93705.25;5008546;28;20191;-84
2022/01/12 10:22:06;;;;;;;12.67;11.67;;;;;;;-2.32;67.13;93694.84;5008526;28;20215;-85
2022/01/12 10:24:36;;;;;;;12.77;11.90;;;;;;;-2.28;65.73;93702.97;5022547;28;20742;-84
2022/01/12 10:27:13;;;;;;;12.17;11.47;;;;;;;-2.12;66.95;93721.47;5008889;28;20318;-86
2022/01/12 10:29:39;;;;;;;12.13;11.33;;;;;;;-1.70;66.96;93706.31;5007475;28;20190;-88
2022/01/12 10:32:08;;;;;;;12.13;11.17;;;;;;;-2.19;64.39;93705.25;5006281;28;20233;-84
2022/01/12 10:34:46;;;;;;;12.80;12.00;;;;;;;-2.01;65.69;93710.81;5005801;28;20183;-86
2022/01/12 10:37:16;;;;;;;12.20;11.40;;;;;;;-1.89;65.44;93703.50;5006936;28;20227;-87
2022/01/12 10:39:46;;;;;;;14.10;12.97;;;;;;;-2.18;66.55;93706.06;5005418;28;20629;-87
2022/01/12 10:42:14;;;;;;;12.27;11.37;;;;;;;-2.31;66.50;93675.97;5007494;28;20231;-83
2022/01/12 10:44:43;;;;;;;12.97;12.07;;;;;;;-2.10;66.00;93701.66;5008172;28;20186;-86
2022/01/12 10:47:14;;;;;;;12.43;11.53;;;;;;;-2.06;65.21;93700.34;5006547;28;20251;-86
2022/01/12 10:50:01;;;;;;;12.77;11.93;;;;;;;-1.82;65.49;93696.69;5007161;28;20194;-87
2022/01/12 10:52:34;;;;;;;12.63;11.77;;;;;;;-1.41;64.95;93704.69;4995092;28;21326;-87
2022/01/12 10:55:09;;;;;;;13.60;12.50;;;;;;;-2.55;66.08;93663.41;5007401;28;20229;-86
2022/01/12 10:57:38;;;;;;;12.47;11.73;;;;;;;-2.35;65.38;93695.19;5004897;28;20266;-86
2022/01/12 11:00:10;;;;;;;12.90;11.70;;;;;;;-2.33;66.87;93698.38;5005683;28;20198;-88
2022/01/12 11:02:38;;;;;;;12.90;12.00;;;;;;;-2.67;66.01;93644.38;5005577;28;20250;-83
2022/01/12 11:05:06;;;;;;;12.17;11.47;;;;;;;-2.46;65.99;93700.72;5008167;28;20184;-89
2022/01/12 11:07:32;;;;;;;12.57;11.67;;;;;;;-2.17;64.65;93695.66;4994351;28;20231;-86
2022/01/12 11:10:00;;;;;;;11.70;10.90;;;;;;;-1.93;65.85;93695.38;5011770;28;20206;-86
2022/01/12 11:12:26;;;;;;;12.47;11.47;;;;;;;-2.18;64.77;93691.50;5011708;28;20247;-86
2022/01/12 11:14:52;;;;;;;12.13;11.27;;;;;;;-2.20;65.38;93667.06;5012672;28;20203;-84
2022/01/12 11:17:18;;;;;;;12.57;11.47;;;;;;;-2.07;65.87;93662.16;5011044;28;20238;-84
2022/01/12 11:20:03;;;;;;;14.17;12.97;;;;;;;-1.88;64.81;93700.78;5010591;28;20191;-87
2022/01/12 11:22:49;;;;;;;16.13;14.63;;;;;;;-1.96;65.05;93695.75;5011267;28;20229;-85
2022/01/12 11:25:29;;;;;;;11.90;11.03;;;;;;;-1.98;63.56;93705.34;5010547;28;20192;-85
2022/01/12 11:28:16;;;;;;;12.60;11.70;;;;;;;-1.83;64.79;93707.91;5026516;28;20196;-85
2022/01/12 11:30:50;;;;;;;12.17;11.37;;;;;;;-2.03;65.36;93701.75;5011179;28;20258;-84
2022/01/12 11:33:17;;;;;;;11.50;10.87;;;;;;;-1.81;63.40;93711.91;5011249;28;20184;-85
2022/01/12 11:35:49;;;;;;;11.63;10.93;;;;;;;-1.74;64.18;93699.16;5010886;28;20227;-83
2022/01/12 11:38:23;;;;;;;11.53;10.83;;;;;;;-1.63;63.52;93702.09;5011261;28;20239;-83
2022/01/12 11:40:50;;;;;;;13.03;11.83;;;;;;;-1.07;62.63;93715.13;5010557;28;20222;-85
2022/01/12 11:43:27;;;;;;;12.10;11.50;;;;;;;-1.42;61.32;93713.34;5009716;28;20203;-83
2022/01/12 11:46:00;;;;;;;11.23;10.53;;;;;;;-1.52;62.49;93717.94;5010977;28;20257;-83
2022/01/12 11:48:34;;;;;;;12.90;12.00;;;;;;;-1.68;61.38;93704.38;5011889;28;20192;-85
2022/01/12 11:51:00;;;;;;;13.37;12.30;;;;;;;-1.81;64.14;93708.53;5010287;28;20231;-82
2022/01/12 11:53:27;;;;;;;11.73;10.93;;;;;;;-1.58;62.57;93705.88;5012248;28;20218;-81
2022/01/12 11:55:53;;;;;;;11.40;10.77;;;;;;;-1.41;61.29;93720.84;5009168;28;20258;-84
2022/01/12 11:58:19;;;;;;;12.13;11.33;;;;;;;-1.51;63.10;93697.31;5011509;28;20215;-85
2022/01/12 12:00:45;;;;;;;12.00;11.20;;;;;;;-1.45;60.96;93709.41;5009600;28;20234;-82
2022/01/12 12:03:19;;;;;;;11.17;10.57;;;;;;;-1.44;60.78;93705.84;5010343;28;20192;-82
2022/01/12 12:05:45;;;;;;;11.97;10.97;;;;;;;-1.36;60.52;93692.16;5011725;28;20239;-82
2022/01/12 12:08:10;;;;;;;10.77;10.17;;;;;;;-1.33;60.38;93738.69;5009978;28;20187;-86
2022/01/12 12:10:38;;;;;;;12.20;11.50;;;;;;;-1.69;61.09;93728.41;5012164;28;20231;-86
2022/01/12 12:13:06;;;;;;;11.57;10.87;;;;;;;-1.52;61.24;93728.19;5009431;28;20183;-93
2022/01/12 12:15:33;;;;;;;11.53;10.73;;;;;;;-1.48;61.13;93725.13;5010538;28;20195;-84
2022/01/12 12:18:03;;;;;;;11.27;10.67;;;;;;;-1.92;59.97;93671.41;5009798;28;20219;-86
2022/01/12 12:20:31;;;;;;;11.47;10.77;;;;;;;-1.98;60.97;93702.78;5011035;28;21554;-83
2022/01/12 12:22:57;;;;;;;12.83;12.03;;;;;;;-1.85;61.13;93691.94;5011053;28;20183;-82
2022/01/12 12:25:25;;;;;;;13.37;12.27;;;;;;;-1.72;60.80;93675.00;5009602;28;20226;-82
2022/01/12 12:27:57;;;;;;;11.90;11.10;;;;;;;-1.17;60.14;93712.06;5011783;28;20198;-83
2022/01/12 12:30:25;;;;;;;11.80;11.10;;;;;;;-1.04;59.76;93707.88;5008365;28;20196;-79
2022/01/12 12:32:56;;;;;;;13.73;12.60;;;;;;;-1.02;59.89;93726.41;5011058;28;20226;-82
2022/01/12 12:35:28;;;;;;;13.80;12.80;;;;;;;-1.23;60.18;93682.81;5007741;28;20192;-81
2022/01/12 12:38:06;;;;;;;11.57;10.87;;;;;;;-1.12;59.96;93700.28;5010274;28;20224;-81
2022/01/12 12:40:46;;;;;;;18.00;16.37;;;;;;;-0.69;57.11;93712.16;5010991;28;20213;-79
2022/01/12 12:43:28;;;;;;;11.67;10.93;;;;;;;-1.01;57.42;93699.03;5009250;28;20195;-81